createdAt,value
2023-09-20T00:00:20.572Z,88.00
2023-09-20T00:02:51.401Z,88.00
2023-09-20T00:05:23.157Z,88.10
2023-09-20T00:07:55.993Z,88.10
2023-09-20T00:10:28.788Z,88.10
2023-09-20T00:12:55.891Z,88.00
2023-09-20T00:15:28.342Z,87.90
2023-09-20T00:17:55.742Z,88.00
2023-09-20T00:20:23.085Z,87.90
2023-09-20T00:22:51.963Z,88.00
2023-09-20T00:25:21.067Z,87.90
2023-09-20T00:27:48.174Z,87.90
2023-09-20T00:30:16.890Z,87.90
2023-09-20T00:32:44.803Z,88.00
2023-09-20T00:35:13.979Z,88.10
2023-09-20T00:37:42.693Z,88.10
2023-09-20T00:40:19.484Z,88.10
2023-09-20T00:42:48.901Z,88.20
2023-09-20T00:45:16.772Z,88.20
2023-09-20T00:48:00.711Z,88.10
2023-09-20T00:50:29.840Z,88.00
2023-09-20T00:52:57.760Z,88.10
2023-09-20T00:55:37.199Z,88.20
2023-09-20T00:58:19.514Z,88.20
2023-09-20T01:00:47.954Z,88.50
2023-09-20T01:03:19.324Z,88.70
2023-09-20T01:05:49.266Z,88.80
2023-09-20T01:08:20.628Z,88.80
2023-09-20T01:10:49.691Z,88.80
2023-09-20T01:13:20.149Z,88.80
2023-09-20T01:15:47.687Z,88.80
2023-09-20T01:18:15.014Z,88.90
2023-09-20T01:20:42.293Z,88.90
2023-09-20T01:23:09.676Z,89.00
2023-09-20T01:25:43.770Z,89.20
2023-09-20T01:28:12.438Z,89.30
2023-09-20T01:30:42.730Z,89.50
2023-09-20T01:33:10.833Z,89.60
2023-09-20T01:35:42.209Z,89.70
2023-09-20T01:38:12.112Z,89.80
2023-09-20T01:40:42.514Z,89.90
2023-09-20T01:43:09.783Z,90.00
2023-09-20T01:45:38.018Z,90.10
2023-09-20T01:48:10.431Z,90.10
2023-09-20T01:50:38.887Z,90.10
2023-09-20T01:53:08.171Z,90.20
2023-09-20T01:55:40.691Z,90.20
2023-09-20T01:58:07.800Z,90.20
2023-09-20T02:00:41.501Z,90.30
2023-09-20T02:03:21.207Z,90.30
2023-09-20T02:05:51.337Z,90.40
2023-09-20T02:08:19.930Z,90.40
2023-09-20T02:10:47.861Z,90.40
2023-09-20T02:13:17.132Z,90.40
2023-09-20T02:15:46.099Z,90.50
2023-09-20T02:18:13.430Z,90.50
2023-09-20T02:20:41.434Z,90.60
2023-09-20T02:23:14.430Z,90.60
2023-09-20T02:25:44.424Z,90.60
2023-09-20T02:28:12.417Z,90.60
2023-09-20T02:30:43.078Z,90.70
2023-09-20T02:33:12.356Z,90.70
2023-09-20T02:35:42.572Z,90.70
2023-09-20T02:38:10.795Z,90.80
2023-09-20T02:40:40.058Z,90.90
2023-09-20T02:43:13.951Z,90.90
2023-09-20T02:45:41.713Z,90.90
2023-09-20T02:48:12.237Z,91.00
2023-09-20T02:50:42.903Z,91.00
2023-09-20T02:53:10.902Z,91.10
2023-09-20T02:55:40.227Z,91.10
2023-09-20T02:58:08.603Z,91.10
2023-09-20T03:00:39.723Z,91.20
2023-09-20T03:03:08.961Z,91.20
2023-09-20T03:05:37.440Z,91.20
2023-09-20T03:08:14.818Z,91.30
2023-09-20T03:10:43.968Z,91.30
2023-09-20T03:13:18.390Z,91.30
2023-09-20T03:15:49.471Z,91.40
2023-09-20T03:18:26.618Z,91.50
2023-09-20T03:21:06.485Z,91.50
2023-09-20T03:23:36.563Z,91.60
2023-09-20T03:26:07.206Z,91.60
2023-09-20T03:28:35.330Z,91.70
2023-09-20T03:31:11.950Z,91.70
2023-09-20T03:33:40.179Z,91.70
2023-09-20T03:36:16.893Z,91.80
2023-09-20T03:38:46.906Z,91.80
2023-09-20T03:41:15.124Z,91.80
2023-09-20T03:43:50.407Z,91.80
2023-09-20T03:46:19.945Z,91.80
2023-09-20T03:48:51.422Z,91.80
2023-09-20T03:51:25.975Z,91.80
2023-09-20T03:53:53.115Z,92.10
2023-09-20T03:56:25.659Z,91.80
2023-09-20T03:58:53.255Z,91.80
2023-09-20T04:01:24.913Z,91.80
2023-09-20T04:03:53.944Z,91.80
2023-09-20T04:06:21.382Z,91.70
2023-09-20T04:08:49.362Z,91.70
2023-09-20T04:11:16.727Z,91.80
2023-09-20T04:13:43.937Z,91.80
2023-09-20T04:16:11.202Z,91.80
2023-09-20T04:18:44.481Z,91.70
2023-09-20T04:21:11.634Z,91.70
2023-09-20T04:23:40.370Z,91.60
2023-09-20T04:26:07.528Z,91.60
2023-09-20T04:28:34.693Z,91.50
2023-09-20T04:31:03.484Z,91.50
2023-09-20T04:33:31.455Z,91.60
2023-09-20T04:35:59.853Z,91.60
2023-09-20T04:38:28.708Z,91.60
2023-09-20T04:40:58.003Z,91.60
2023-09-20T04:43:25.770Z,91.70
2023-09-20T04:45:55.451Z,91.70
2023-09-20T04:48:23.042Z,91.80
2023-09-20T04:50:50.800Z,91.90
2023-09-20T04:53:18.130Z,92.00
2023-09-20T04:55:45.525Z,92.00
2023-09-20T04:58:12.834Z,92.10
2023-09-20T05:00:43.457Z,92.10
2023-09-20T05:03:16.374Z,92.10
2023-09-20T05:05:46.087Z,92.20
2023-09-20T05:08:16.642Z,92.20
2023-09-20T05:10:44.509Z,92.20
2023-09-20T05:13:12.057Z,92.20
2023-09-20T05:15:40.587Z,92.30
2023-09-20T05:18:09.216Z,92.40
2023-09-20T05:20:37.804Z,92.40
2023-09-20T05:23:05.650Z,92.30
2023-09-20T05:25:35.904Z,92.40
2023-09-20T05:28:03.612Z,92.40
2023-09-20T05:30:31.671Z,92.40
2023-09-20T05:33:00.561Z,92.50
2023-09-20T05:35:27.790Z,92.50
2023-09-20T05:37:55.025Z,92.50
2023-09-20T05:40:22.878Z,92.50
2023-09-20T05:42:52.176Z,92.50
2023-09-20T05:45:24.525Z,92.50
2023-09-20T05:47:52.033Z,92.50
2023-09-20T05:50:35.097Z,92.50
2023-09-20T05:53:07.531Z,92.50
2023-09-20T05:55:46.976Z,92.50
2023-09-20T05:58:14.133Z,92.50
2023-09-20T06:00:41.308Z,92.40
2023-09-20T06:03:08.740Z,92.40
2023-09-20T06:05:45.710Z,92.40
2023-09-20T06:08:15.742Z,92.40
2023-09-20T06:10:45.738Z,92.30
2023-09-20T06:13:13.710Z,92.20
2023-09-20T06:15:43.996Z,92.20
2023-09-20T06:18:11.161Z,92.10
2023-09-20T06:20:40.885Z,92.00
2023-09-20T06:23:08.369Z,92.00
2023-09-20T06:25:35.671Z,91.90
2023-09-20T06:28:10.304Z,91.90
2023-09-20T06:30:37.543Z,91.80
2023-09-20T06:33:07.578Z,91.80
2023-09-20T06:35:34.831Z,91.70
2023-09-20T06:38:02.061Z,91.70
2023-09-20T06:40:40.232Z,91.70
2023-09-20T06:43:13.143Z,91.70
2023-09-20T06:45:55.590Z,91.70
2023-09-20T06:48:26.518Z,91.60
2023-09-20T06:50:56.087Z,91.60
2023-09-20T06:53:26.626Z,91.60
2023-09-20T06:55:54.473Z,91.60
2023-09-20T06:58:22.871Z,91.50
2023-09-20T07:00:52.203Z,91.50
2023-09-20T07:03:20.899Z,91.40
2023-09-20T07:05:49.054Z,91.40
2023-09-20T07:08:24.640Z,91.40
2023-09-20T07:10:52.544Z,91.40
2023-09-20T07:13:21.181Z,91.40
2023-09-20T07:15:51.535Z,91.30
2023-09-20T07:18:20.962Z,91.30
2023-09-20T07:20:49.512Z,91.10
2023-09-20T07:23:17.402Z,91.10
2023-09-20T07:25:44.982Z,91.00
2023-09-20T07:28:12.517Z,90.80
2023-09-20T07:30:46.124Z,90.80
2023-09-20T07:33:25.781Z,90.70
2023-09-20T07:36:02.338Z,90.60
2023-09-20T07:38:34.438Z,90.60
2023-09-20T07:41:19.183Z,90.50
2023-09-20T07:46:58.852Z,90.50
2023-09-20T07:50:04.614Z,90.60
2023-09-20T07:53:41.557Z,90.50
2023-09-20T07:56:12.846Z,90.50
2023-09-20T07:58:57.058Z,90.50
2023-09-20T08:02:42.656Z,90.40
2023-09-20T08:05:12.863Z,90.40
2023-09-20T08:07:53.472Z,90.40
2023-09-20T08:11:14.123Z,90.30
2023-09-20T08:14:09.919Z,90.20
2023-09-20T08:17:21.202Z,90.00
2023-09-20T08:19:59.606Z,90.00
2023-09-20T08:22:49.583Z,89.60
2023-09-20T08:25:35.256Z,89.60
2023-09-20T08:33:13.280Z,89.20
2023-09-20T08:36:05.015Z,89.10
2023-09-20T08:38:53.614Z,89.00
2023-09-20T08:41:40.238Z,88.70
2023-09-20T08:44:30.228Z,88.90
2023-09-20T08:47:59.456Z,88.50
2023-09-20T08:53:56.049Z,88.80
2023-09-20T08:56:49.649Z,88.70
2023-09-20T09:00:03.707Z,88.30
2023-09-20T09:02:32.438Z,88.10
2023-09-20T09:05:02.230Z,88.40
2023-09-20T09:07:35.623Z,88.30
2023-09-20T09:10:04.256Z,88.50
2023-09-20T09:14:11.174Z,88.40
2023-09-20T09:16:44.179Z,88.40
2023-09-20T09:19:57.689Z,88.50
2023-09-20T09:22:30.275Z,88.30
2023-09-20T09:25:00.328Z,88.20
2023-09-20T09:27:27.815Z,88.00
2023-09-20T09:30:19.766Z,87.70
2023-09-20T09:33:40.765Z,87.50
2023-09-20T09:36:17.107Z,87.50
2023-09-20T09:39:34.464Z,87.40
2023-09-20T09:45:45.860Z,87.10
2023-09-20T09:50:53.815Z,87.10
2023-09-20T09:52:01.191Z,87.10
2023-09-20T09:55:03.779Z,87.10
2023-09-20T09:57:33.757Z,86.70
2023-09-20T10:00:01.897Z,86.70
2023-09-20T10:02:48.170Z,86.30
2023-09-20T10:05:42.551Z,86.00
2023-09-20T10:08:15.192Z,85.60
2023-09-20T10:10:45.751Z,85.30
2023-09-20T10:13:24.292Z,85.00
2023-09-20T10:16:13.043Z,84.90
2023-09-20T10:18:56.854Z,84.90
2023-09-20T10:21:40.164Z,85.00
2023-09-20T10:24:09.946Z,85.10
2023-09-20T10:26:43.189Z,84.90
2023-09-20T10:29:25.930Z,84.70
2023-09-20T10:32:17.930Z,84.40
2023-09-20T10:35:24.568Z,84.50
2023-09-20T10:38:29.100Z,84.30
2023-09-20T10:40:58.623Z,84.70
2023-09-20T10:44:06.418Z,84.30
2023-09-20T10:46:42.113Z,84.40
2023-09-20T10:49:55.244Z,83.90
2023-09-20T10:52:34.252Z,83.30
2023-09-20T10:55:18.730Z,83.20
2023-09-20T10:57:47.693Z,83.00
2023-09-20T11:00:31.731Z,82.70
2023-09-20T11:03:30.950Z,82.40
2023-09-20T11:06:11.741Z,82.20
2023-09-20T11:08:45.075Z,82.50
2023-09-20T11:11:20.646Z,82.20
2023-09-20T11:13:50.407Z,81.80
2023-09-20T11:16:25.560Z,81.50
2023-09-20T11:19:22.830Z,81.20
2023-09-20T11:22:19.973Z,80.90
2023-09-20T11:29:03.709Z,80.60
2023-09-20T11:31:34.094Z,80.90
2023-09-20T11:34:06.037Z,80.30
2023-09-20T11:37:13.796Z,79.50
2023-09-20T11:39:43.789Z,79.90
2023-09-20T11:42:50.037Z,80.40
2023-09-20T11:45:44.321Z,79.80
2023-09-20T11:48:10.367Z,80.20
2023-09-20T11:50:46.050Z,80.20
2023-09-20T11:53:18.421Z,80.30
2023-09-20T11:55:46.578Z,80.40
2023-09-20T11:58:22.496Z,80.40
2023-09-20T12:00:51.853Z,80.50
2023-09-20T12:03:19.145Z,80.60
2023-09-20T12:05:48.282Z,80.20
2023-09-20T12:08:33.288Z,80.40
2023-09-20T12:11:43.838Z,80.60
2023-09-20T12:14:14.846Z,79.80
2023-09-20T12:16:51.399Z,79.90
2023-09-20T12:23:36.874Z,79.20
2023-09-20T12:26:30.447Z,79.30
2023-09-20T12:33:23.603Z,78.60
2023-09-20T12:40:16.301Z,77.80
2023-09-20T12:42:45.086Z,78.00
2023-09-20T12:50:44.383Z,78.10
2023-09-20T12:53:59.545Z,78.60
2023-09-20T12:57:06.882Z,78.60
2023-09-20T13:04:53.638Z,78.60
2023-09-20T13:15:24.748Z,78.00
2023-09-20T13:21:42.080Z,77.90
2023-09-20T13:24:10.649Z,78.00
2023-09-20T13:26:57.495Z,77.80
2023-09-20T13:33:42.666Z,76.80
2023-09-20T13:36:12.365Z,76.40
2023-09-20T13:41:29.008Z,76.20
2023-09-20T13:43:57.427Z,76.40
2023-09-20T13:46:26.824Z,75.70
2023-09-20T13:48:57.240Z,74.90
2023-09-20T13:51:24.569Z,75.00
2023-09-20T13:53:51.911Z,75.40
2023-09-20T13:56:22.863Z,75.60
2023-09-20T13:58:57.691Z,75.70
2023-09-20T14:01:33.971Z,76.00
2023-09-20T14:04:07.323Z,76.00
2023-09-20T14:06:34.796Z,76.20
2023-09-20T14:09:02.161Z,76.00
2023-09-20T14:11:44.803Z,75.90
2023-09-20T14:14:34.079Z,75.80
2023-09-20T14:17:16.115Z,75.80
2023-09-20T14:23:45.735Z,76.00
2023-09-20T14:26:30.997Z,76.20
2023-09-20T14:29:00.817Z,76.20
2023-09-20T14:31:42.022Z,75.60
2023-09-20T14:38:44.636Z,75.20
2023-09-20T14:40:55.970Z,75.20
2023-09-20T14:43:29.301Z,75.20
2023-09-20T14:46:15.311Z,75.50
2023-09-20T14:48:43.499Z,75.50
2023-09-20T14:51:19.905Z,75.20
2023-09-20T14:53:55.627Z,75.10
2023-09-20T14:56:22.860Z,75.30
2023-09-20T14:58:50.305Z,75.50
2023-09-20T15:01:52.963Z,75.50
2023-09-20T15:04:22.481Z,75.70
2023-09-20T15:07:34.137Z,75.90
2023-09-20T15:10:06.436Z,76.10
2023-09-20T15:12:40.151Z,76.30
2023-09-20T15:15:21.828Z,76.60
2023-09-20T15:17:51.164Z,76.60
2023-09-20T15:20:21.722Z,76.80
2023-09-20T15:22:58.748Z,76.90
2023-09-20T15:25:50.172Z,76.80
2023-09-20T15:28:27.970Z,76.90
2023-09-20T15:30:59.140Z,76.80
2023-09-20T15:33:29.687Z,77.10
2023-09-20T15:36:13.437Z,77.40
2023-09-20T15:39:34.480Z,77.60
2023-09-20T15:42:01.752Z,77.90
2023-09-20T15:44:29.133Z,78.20
2023-09-20T15:47:18.576Z,78.30
2023-09-20T15:50:11.108Z,78.40
2023-09-20T15:52:43.434Z,78.30
2023-09-20T15:55:39.626Z,78.50
2023-09-20T15:58:06.816Z,78.50
2023-09-20T16:00:36.361Z,78.60
2023-09-20T16:03:09.724Z,78.60
2023-09-20T16:05:37.230Z,78.30
2023-09-20T16:09:09.370Z,78.40
2023-09-20T16:16:59.832Z,78.50
2023-09-20T16:24:45.133Z,78.70
2023-09-20T16:27:19.579Z,78.80
2023-09-20T16:29:46.841Z,78.90
2023-09-20T16:32:20.959Z,78.90
2023-09-20T16:34:51.150Z,79.00
2023-09-20T16:37:21.442Z,79.10
2023-09-20T16:39:50.731Z,79.10
2023-09-20T16:42:32.938Z,79.20
2023-09-20T16:45:00.221Z,79.20
2023-09-20T16:52:18.839Z,79.40
2023-09-20T16:55:38.918Z,79.70
2023-09-20T16:58:09.795Z,80.00
2023-09-20T17:00:39.761Z,80.30
2023-09-20T17:03:09.564Z,80.50
2023-09-20T17:05:40.291Z,80.60
2023-09-20T17:08:08.155Z,80.70
2023-09-20T17:10:36.067Z,80.90
2023-09-20T17:13:03.639Z,81.10
2023-09-20T17:15:30.898Z,81.20
2023-09-20T17:21:40.710Z,81.40
2023-09-20T17:24:19.892Z,81.70
2023-09-20T17:26:47.225Z,81.90
2023-09-20T17:29:19.409Z,82.00
2023-09-20T17:31:47.766Z,82.70
2023-09-20T17:34:15.752Z,82.10
2023-09-20T17:36:43.081Z,82.20
2023-09-20T17:39:10.431Z,82.30
2023-09-20T17:41:39.027Z,82.40
2023-09-20T17:45:20.044Z,82.60
2023-09-20T17:59:03.906Z,83.80
2023-09-20T18:01:40.220Z,84.10
2023-09-20T18:04:10.480Z,84.20
2023-09-20T18:06:37.751Z,84.40
2023-09-20T18:09:05.111Z,84.60
2023-09-20T18:15:55.821Z,84.90
2023-09-20T18:20:11.401Z,85.10
2023-09-20T18:29:09.020Z,85.70
2023-09-20T18:41:54.714Z,86.80
2023-09-20T18:44:26.709Z,87.70
2023-09-20T18:46:54.360Z,87.20
2023-09-20T18:49:21.681Z,87.40
2023-09-20T18:51:53.744Z,87.40
2023-09-20T18:55:32.578Z,87.50
2023-09-20T18:58:02.084Z,87.30
2023-09-20T19:00:31.523Z,87.40
2023-09-20T19:04:29.681Z,87.50
2023-09-20T19:10:37.317Z,87.60
2023-09-20T19:13:27.515Z,87.90
2023-09-20T19:16:02.119Z,87.90
2023-09-20T19:18:31.573Z,87.90
2023-09-20T19:20:59.581Z,87.90
2023-09-20T19:24:11.729Z,87.80
2023-09-20T19:26:38.921Z,87.70
2023-09-20T19:29:07.135Z,87.70
2023-09-20T19:31:34.452Z,87.70
2023-09-20T19:34:02.607Z,87.70
2023-09-20T19:36:30.637Z,87.80
2023-09-20T19:39:00.851Z,87.90
2023-09-20T19:41:30.750Z,88.00
2023-09-20T19:44:01.651Z,88.10
2023-09-20T19:46:29.308Z,88.20
2023-09-20T19:48:56.953Z,88.30
2023-09-20T19:51:24.248Z,88.40
2023-09-20T19:53:52.721Z,88.50
2023-09-20T19:56:35.113Z,88.50
2023-09-20T19:59:07.410Z,88.40
2023-09-20T20:02:24.037Z,88.50
2023-09-20T20:05:16.393Z,88.20
2023-09-20T20:07:52.876Z,88.20
2023-09-20T20:10:23.486Z,88.10
2023-09-20T20:12:51.113Z,88.10
2023-09-20T20:15:21.110Z,88.00
2023-09-20T20:17:52.565Z,88.00
2023-09-20T20:20:22.149Z,88.00
2023-09-20T20:22:56.548Z,88.00
2023-09-20T20:25:28.836Z,88.00
2023-09-20T20:39:46.684Z,88.70
2023-09-20T20:42:22.533Z,88.80
2023-09-20T20:45:25.581Z,88.90
2023-09-20T20:47:55.939Z,88.90
2023-09-20T20:50:32.961Z,89.10
2023-09-20T20:53:10.479Z,89.20
2023-09-20T20:56:53.317Z,89.30
2023-09-20T21:00:53.135Z,89.20
2023-09-20T21:07:45.844Z,89.60
2023-09-20T21:10:15.382Z,89.50
2023-09-20T21:12:42.762Z,89.70
2023-09-20T21:15:15.975Z,89.70
2023-09-20T21:17:46.940Z,89.70
2023-09-20T21:20:21.750Z,89.80
2023-09-20T21:25:59.159Z,89.60
2023-09-20T21:28:37.570Z,89.60
2023-09-20T21:31:15.836Z,89.60
2023-09-20T21:33:45.090Z,89.60
2023-09-20T21:36:15.294Z,89.60
2023-09-20T21:38:42.676Z,89.50
2023-09-20T21:41:10.479Z,89.40
2023-09-20T21:43:37.630Z,89.30
2023-09-20T21:46:07.592Z,89.20
2023-09-20T21:48:34.842Z,89.10
2023-09-20T21:51:04.752Z,88.90
2023-09-20T21:53:32.161Z,88.90
2023-09-20T21:57:46.714Z,88.80
2023-09-20T21:59:35.196Z,88.50
2023-09-20T22:02:09.577Z,88.40
2023-09-20T22:04:44.656Z,88.40
2023-09-20T22:07:15.148Z,88.30
2023-09-20T22:09:42.808Z,88.40
2023-09-20T22:12:10.969Z,88.40
2023-09-20T22:14:43.045Z,88.50
2023-09-20T22:17:22.792Z,88.50
2023-09-20T22:19:55.213Z,88.70
2023-09-20T22:22:34.033Z,88.80
2023-09-20T22:25:05.094Z,88.80
2023-09-20T22:27:32.285Z,89.20
2023-09-20T22:30:02.608Z,88.90
2023-09-20T22:32:32.393Z,88.90
2023-09-20T22:35:05.149Z,88.90
2023-09-20T22:37:35.051Z,88.90
2023-09-20T22:40:09.543Z,88.80
2023-09-20T22:42:37.153Z,88.70
2023-09-20T22:45:11.884Z,88.80
2023-09-20T22:47:39.084Z,88.80
2023-09-20T22:50:12.464Z,88.80
2023-09-20T22:52:40.647Z,88.90
2023-09-20T22:55:09.790Z,88.80
2023-09-20T22:57:37.103Z,88.80
2023-09-20T23:00:14.484Z,88.70
2023-09-20T23:02:45.766Z,88.60
2023-09-20T23:05:16.095Z,88.60
2023-09-20T23:07:50.988Z,88.60
2023-09-20T23:10:21.809Z,88.60
2023-09-20T23:12:49.239Z,88.80
2023-09-20T23:15:16.799Z,88.80
2023-09-20T23:17:50.355Z,88.70
2023-09-20T23:20:39.528Z,88.70
2023-09-20T23:23:08.519Z,88.70
2023-09-20T23:25:42.633Z,88.80
2023-09-20T23:28:12.121Z,88.90
2023-09-20T23:30:41.256Z,88.90
2023-09-20T23:33:13.939Z,88.90
2023-09-20T23:35:58.593Z,88.90
2023-09-20T23:38:32.421Z,88.80
2023-09-20T23:41:06.780Z,88.80
2023-09-20T23:43:35.449Z,88.80
2023-09-20T23:46:12.213Z,88.90
2023-09-20T23:48:45.395Z,89.00
2023-09-20T23:51:12.797Z,89.00
2023-09-20T23:53:49.954Z,89.10
2023-09-20T23:56:18.899Z,89.00
2023-09-20T23:58:47.053Z,89.00
